Time;durP1;ratioP1;P1;durP2;ratioP2;P2;SDS_P1;SDS_P2;PMS_P1;PMS_P2;Temp;Humidity;BMP_temperature;BMP_pressure;BME280_temperature;BME280_humidity;BME280_pressure;Samples;Min_cycle;Max_cycle;Signal;HPM_P1;HPM_P2
2023/10/15 00:00:55;;;;;;;;;;;12.20;71.40;;;;;;5070272;28;19925;-67
2023/10/15 00:03:28;;;;;;;;;;;12.10;71.40;;;;;;5069945;28;20005;-68
2023/10/15 00:06:01;;;;;;;;;;;12.00;71.90;;;;;;5068586;28;19935;-67
2023/10/15 00:08:36;;;;;;;;;;;12.00;72.20;;;;;;5069131;28;19924;-66
2023/10/15 00:11:13;;;;;;;;;;;12.00;72.50;;;;;;5071164;28;19932;-66
2023/10/15 00:13:54;;;;;;;;;;;11.90;72.70;;;;;;5064000;28;19932;-66
2023/10/15 00:16:27;;;;;;;;;;;11.90;73.00;;;;;;5066666;28;19932;-67
2023/10/15 00:19:09;;;;;;;;;;;11.80;73.10;;;;;;5071006;28;19929;-67
2023/10/15 00:21:45;;;;;;;;;;;11.80;73.30;;;;;;5065878;28;19978;-66
2023/10/15 00:24:20;;;;;;;;;;;11.70;73.40;;;;;;5070498;28;20387;-68
2023/10/15 00:26:54;;;;;;;;;;;11.70;73.60;;;;;;5060616;28;19938;-67
2023/10/15 00:29:28;;;;;;;;;;;11.60;73.70;;;;;;5068338;28;20358;-69
2023/10/15 00:32:03;;;;;;;;;;;11.60;74.00;;;;;;5062112;28;19978;-68
2023/10/15 00:34:36;;;;;;;;;;;11.50;74.00;;;;;;5070668;28;19928;-68
2023/10/15 00:37:09;;;;;;;;;;;11.50;74.10;;;;;;5068399;28;19932;-68
2023/10/15 00:39:44;;;;;;;;;;;11.40;74.20;;;;;;5067806;28;19958;-68
2023/10/15 00:42:17;;;;;;;;;;;11.40;74.30;;;;;;5069782;28;19924;-68
2023/10/15 00:44:50;;;;;;;;;;;11.30;74.40;;;;;;5066632;28;19932;-67
2023/10/15 00:47:24;;;;;;;;;;;11.20;74.80;;;;;;5068330;28;19974;-68
2023/10/15 00:50:08;;;;;;;;;;;11.10;75.00;;;;;;5069251;28;19943;-68
2023/10/15 00:52:43;;;;;;;;;;;11.10;75.10;;;;;;5068511;28;19982;-67
2023/10/15 00:55:19;;;;;;;;;;;11.10;75.20;;;;;;5066895;28;20437;-68
2023/10/15 00:57:56;;;;;;;;;;;11.00;75.50;;;;;;5065506;28;19948;-67
2023/10/15 01:00:47;;;;;;;;;;;10.90;75.60;;;;;;5069394;28;19964;-68
2023/10/15 01:03:30;;;;;;;;;;;10.90;75.80;;;;;;5066128;28;19932;-68
2023/10/15 01:06:05;;;;;;;;;;;10.90;75.80;;;;;;5059993;28;20398;-69
2023/10/15 01:08:40;;;;;;;;;;;10.80;76.00;;;;;;5061932;28;19933;-69
2023/10/15 01:11:18;;;;;;;;;;;10.80;76.10;;;;;;5062276;28;19940;-70
2023/10/15 01:13:51;;;;;;;;;;;10.70;76.20;;;;;;5057617;28;19935;-71
2023/10/15 01:16:27;;;;;;;;;;;10.70;76.10;;;;;;5065687;28;19929;-69
2023/10/15 01:19:15;;;;;;;;;;;10.60;76.20;;;;;;5063932;28;20391;-69
2023/10/15 01:21:53;;;;;;;;;;;10.50;76.40;;;;;;5056680;28;19929;-70
2023/10/15 01:24:26;;;;;;;;;;;10.50;76.50;;;;;;5068875;28;20300;-71
2023/10/15 01:27:08;;;;;;;;;;;10.50;76.70;;;;;;5068954;28;19933;-70
2023/10/15 01:29:44;;;;;;;;;;;10.50;76.60;;;;;;5057602;28;19951;-70
2023/10/15 01:32:19;;;;;;;;;;;10.40;76.70;;;;;;5066051;28;19924;-70
2023/10/15 01:34:53;;;;;;;;;;;10.40;76.80;;;;;;5066249;28;19933;-70
2023/10/15 01:37:26;;;;;;;;;;;10.40;76.80;;;;;;5054586;28;20024;-71
2023/10/15 01:40:01;;;;;;;;;;;10.30;77.10;;;;;;5062377;28;19924;-70
2023/10/15 01:42:41;;;;;;;;;;;10.30;77.00;;;;;;5065616;28;19929;-71
2023/10/15 01:45:16;;;;;;;;;;;10.20;77.10;;;;;;5073382;28;20423;-70
2023/10/15 01:48:05;;;;;;;;;;;10.20;77.00;;;;;;5057014;28;19959;-70
2023/10/15 01:50:44;;;;;;;;;;;10.20;77.00;;;;;;5062150;28;20058;-70
2023/10/15 01:53:18;;;;;;;;;;;10.20;76.90;;;;;;5063127;28;19928;-71
2023/10/15 01:55:59;;;;;;;;;;;10.10;77.00;;;;;;5063292;28;19925;-71
2023/10/15 01:58:33;;;;;;;;;;;10.10;77.30;;;;;;5058315;28;20443;-70
2023/10/15 02:01:20;;;;;;;;;;;10.10;77.30;;;;;;5080913;28;19932;-70
2023/10/15 02:03:53;;;;;;;;;;;10.00;77.50;;;;;;5058977;28;20051;-72
2023/10/15 02:06:26;;;;;;;;;;;9.90;77.50;;;;;;5063182;28;19933;-72
2023/10/15 02:08:59;;;;;;;;;;;9.90;77.60;;;;;;5060955;28;19978;-71
2023/10/15 02:11:36;;;;;;;;;;;9.90;77.70;;;;;;5075881;28;19954;-70
2023/10/15 02:14:18;;;;;;;;;;;9.90;77.60;;;;;;5067419;28;19932;-71
2023/10/15 02:16:53;;;;;;;;;;;9.90;77.50;;;;;;5065073;28;19936;-71
2023/10/15 02:19:34;;;;;;;;;;;9.90;77.50;;;;;;5064639;28;19937;-71
2023/10/15 02:22:12;;;;;;;;;;;9.80;77.60;;;;;;5066293;28;20383;-72
2023/10/15 02:24:47;;;;;;;;;;;9.90;77.50;;;;;;5062005;28;21279;-63
2023/10/15 02:27:23;;;;;;;;;;;9.80;77.50;;;;;;5069007;28;19982;-62
2023/10/15 02:29:58;;;;;;;;;;;9.70;77.60;;;;;;5055524;28;19932;-61
2023/10/15 02:32:33;;;;;;;;;;;9.70;77.80;;;;;;5069321;28;19955;-61
2023/10/15 02:35:12;;;;;;;;;;;9.80;77.50;;;;;;5064105;28;20388;-61
2023/10/15 02:37:47;;;;;;;;;;;9.80;77.50;;;;;;5072808;28;19925;-62
2023/10/15 02:40:21;;;;;;;;;;;9.70;77.60;;;;;;5073068;28;20023;-61
2023/10/15 02:42:54;;;;;;;;;;;9.80;77.50;;;;;;5072368;28;20391;-61
2023/10/15 02:45:35;;;;;;;;;;;9.70;77.50;;;;;;5073108;28;20388;-62
2023/10/15 02:48:10;;;;;;;;;;;9.70;77.30;;;;;;5073442;28;19977;-61
2023/10/15 02:50:57;;;;;;;;;;;9.60;77.60;;;;;;5071161;28;20388;-62
2023/10/15 02:53:34;;;;;;;;;;;9.60;77.60;;;;;;5072202;28;19924;-62
2023/10/15 02:56:11;;;;;;;;;;;9.70;77.60;;;;;;5073678;28;19924;-63
2023/10/15 02:58:44;;;;;;;;;;;9.60;77.50;;;;;;5061931;28;19928;-64
2023/10/15 03:01:20;;;;;;;;;;;9.50;77.80;;;;;;5074147;28;20023;-63
2023/10/15 03:03:55;;;;;;;;;;;9.50;78.00;;;;;;5073710;28;20043;-61
2023/10/15 03:06:31;;;;;;;;;;;9.50;77.90;;;;;;5074124;28;19924;-62
2023/10/15 03:09:11;;;;;;;;;;;9.60;77.90;;;;;;5047639;28;19928;-62
2023/10/15 03:11:50;;;;;;;;;;;9.60;77.70;;;;;;5068532;28;19929;-62
2023/10/15 03:14:25;;;;;;;;;;;9.50;77.80;;;;;;5056392;28;19990;-61
2023/10/15 03:17:00;;;;;;;;;;;9.40;77.80;;;;;;5052227;28;19929;-61
2023/10/15 03:19:33;;;;;;;;;;;9.40;77.90;;;;;;5050774;28;19925;-62
2023/10/15 03:22:09;;;;;;;;;;;9.30;78.10;;;;;;5052353;28;19925;-61
2023/10/15 03:24:44;;;;;;;;;;;9.30;78.10;;;;;;5052122;28;20368;-61
2023/10/15 03:27:22;;;;;;;;;;;9.20;77.90;;;;;;5052255;28;19932;-60
2023/10/15 03:29:56;;;;;;;;;;;9.20;78.00;;;;;;5052470;28;19931;-61
2023/10/15 03:32:32;;;;;;;;;;;9.20;78.10;;;;;;5051691;28;20055;-61
2023/10/15 03:35:08;;;;;;;;;;;9.10;78.30;;;;;;5051457;28;19998;-70
2023/10/15 03:37:45;;;;;;;;;;;9.10;78.30;;;;;;5050498;28;19967;-70
2023/10/15 03:40:30;;;;;;;;;;;9.10;78.20;;;;;;5050313;28;19964;-69
2023/10/15 03:43:06;;;;;;;;;;;9.10;78.40;;;;;;5051489;28;19951;-69
2023/10/15 03:45:50;;;;;;;;;;;9.10;78.30;;;;;;5051307;28;19933;-69
2023/10/15 03:48:29;;;;;;;;;;;9.00;78.40;;;;;;5051644;28;19929;-69
2023/10/15 03:51:05;;;;;;;;;;;9.00;78.30;;;;;;5051195;28;19952;-69
2023/10/15 03:53:41;;;;;;;;;;;9.00;78.30;;;;;;5051151;28;19929;-70
2023/10/15 03:56:17;;;;;;;;;;;8.90;78.50;;;;;;5052105;28;19925;-70
2023/10/15 03:58:51;;;;;;;;;;;9.00;78.30;;;;;;5057449;28;19933;-70
2023/10/15 04:01:27;;;;;;;;;;;8.90;78.30;;;;;;5052271;28;20291;-70
2023/10/15 04:04:02;;;;;;;;;;;8.80;78.30;;;;;;5051829;28;19943;-69
2023/10/15 04:06:35;;;;;;;;;;;8.80;78.30;;;;;;5052710;28;20378;-70
2023/10/15 04:09:12;;;;;;;;;;;8.70;78.30;;;;;;5075742;28;19932;-70
2023/10/15 04:11:45;;;;;;;;;;;8.70;78.50;;;;;;5048932;28;19929;-70
2023/10/15 04:14:26;;;;;;;;;;;8.70;78.40;;;;;;5064654;28;19928;-70
2023/10/15 04:16:59;;;;;;;;;;;8.70;78.40;;;;;;5071370;28;19937;-70
2023/10/15 04:19:35;;;;;;;;;;;8.60;78.50;;;;;;5073004;28;19937;-69
2023/10/15 04:22:13;;;;;;;;;;;8.60;78.60;;;;;;5071584;28;19925;-69
2023/10/15 04:24:50;;;;;;;;;;;8.60;78.50;;;;;;5067221;28;19931;-70
2023/10/15 04:27:26;;;;;;;;;;;8.60;78.50;;;;;;5072046;28;19928;-69
2023/10/15 04:30:00;;;;;;;;;;;8.50;78.70;;;;;;5071381;28;19929;-69
2023/10/15 04:32:45;;;;;;;;;;;8.50;78.80;;;;;;5071701;28;20543;-69
2023/10/15 04:35:25;;;;;;;;;;;8.50;78.90;;;;;;5070513;28;20829;-71
2023/10/15 04:37:59;;;;;;;;;;;8.50;79.20;;;;;;5071002;28;19924;-69
2023/10/15 04:40:40;;;;;;;;;;;8.50;79.40;;;;;;5069337;28;19928;-69
2023/10/15 04:43:14;;;;;;;;;;;8.50;79.60;;;;;;5070954;28;19939;-70
2023/10/15 04:45:49;;;;;;;;;;;8.50;79.70;;;;;;5068554;28;19928;-70
2023/10/15 04:48:27;;;;;;;;;;;8.60;79.80;;;;;;5070575;28;19924;-70
2023/10/15 04:51:04;;;;;;;;;;;8.50;79.70;;;;;;5070986;28;19924;-70
2023/10/15 04:53:37;;;;;;;;;;;8.50;79.70;;;;;;5071692;28;19928;-71
2023/10/15 04:56:10;;;;;;;;;;;8.50;79.70;;;;;;5069941;28;19928;-69
2023/10/15 04:58:43;;;;;;;;;;;8.50;79.70;;;;;;5071387;28;19932;-70
2023/10/15 05:01:12;;;;;;;;;;;8.40;79.80;;;;;;5071531;28;19935;-70
2023/10/15 05:03:46;;;;;;;;;;;8.50;79.20;;;;;;5067622;28;19999;-69
2023/10/15 05:06:22;;;;;;;;;;;8.40;79.40;;;;;;5068235;28;20012;-70
2023/10/15 05:08:55;;;;;;;;;;;8.50;79.30;;;;;;5070537;28;20029;-70
2023/10/15 05:11:28;;;;;;;;;;;8.40;79.40;;;;;;5071411;28;19929;-70
2023/10/15 05:14:02;;;;;;;;;;;8.40;79.40;;;;;;5069995;28;19928;-71
2023/10/15 05:16:35;;;;;;;;;;;8.40;79.50;;;;;;5070794;28;19924;-71
2023/10/15 05:19:08;;;;;;;;;;;8.50;79.40;;;;;;5071340;28;19924;-71
2023/10/15 05:21:43;;;;;;;;;;;8.50;79.40;;;;;;5070456;28;19924;-71
2023/10/15 05:24:18;;;;;;;;;;;8.50;79.50;;;;;;5071048;28;19928;-71
2023/10/15 05:26:51;;;;;;;;;;;8.50;79.30;;;;;;5059228;28;19924;-69
2023/10/15 05:29:24;;;;;;;;;;;8.40;79.40;;;;;;5079494;28;19924;-72
2023/10/15 05:31:57;;;;;;;;;;;8.50;79.20;;;;;;5067225;28;19925;-70
2023/10/15 05:34:30;;;;;;;;;;;8.50;79.10;;;;;;5071780;28;19954;-70
2023/10/15 05:37:05;;;;;;;;;;;8.50;79.30;;;;;;5069672;28;19932;-70
2023/10/15 05:39:38;;;;;;;;;;;8.40;79.40;;;;;;5070314;28;19985;-69
2023/10/15 05:42:15;;;;;;;;;;;8.30;79.60;;;;;;5068926;28;20384;-70
2023/10/15 05:44:48;;;;;;;;;;;8.30;79.70;;;;;;5071120;28;19938;-70
2023/10/15 05:47:21;;;;;;;;;;;8.30;79.70;;;;;;5071157;28;19925;-71
2023/10/15 05:49:55;;;;;;;;;;;8.30;79.70;;;;;;5068338;28;20612;-71
2023/10/15 05:52:24;;;;;;;;;;;8.30;79.60;;;;;;5070376;28;19929;-70
2023/10/15 05:54:58;;;;;;;;;;;8.30;79.50;;;;;;5065967;28;20319;-73
2023/10/15 05:57:31;;;;;;;;;;;8.20;79.60;;;;;;5071103;28;20399;-72
2023/10/15 06:00:17;;;;;;;;;;;8.20;79.60;;;;;;5069254;28;19929;-72
2023/10/15 06:02:51;;;;;;;;;;;8.20;79.40;;;;;;5068453;28;19924;-72
2023/10/15 06:05:24;;;;;;;;;;;8.10;79.60;;;;;;5067497;28;20910;-72
2023/10/15 06:07:54;;;;;;;;;;;8.10;79.60;;;;;;5067796;28;19924;-72
2023/10/15 06:10:29;;;;;;;;;;;8.10;79.60;;;;;;5070424;28;20288;-71
2023/10/15 06:13:02;;;;;;;;;;;8.00;79.90;;;;;;5069417;28;19928;-72
2023/10/15 06:15:35;;;;;;;;;;;8.00;80.00;;;;;;5069747;28;19967;-71
2023/10/15 06:18:09;;;;;;;;;;;8.00;80.00;;;;;;5071597;28;19931;-71
2023/10/15 06:20:42;;;;;;;;;;;8.10;80.10;;;;;;5069031;28;19967;-73
2023/10/15 06:23:18;;;;;;;;;;;8.00;80.10;;;;;;5066309;28;23471;-72
2023/10/15 06:25:51;;;;;;;;;;;8.00;80.20;;;;;;5070445;28;20011;-72
2023/10/15 06:28:31;;;;;;;;;;;8.00;80.30;;;;;;5067930;28;19943;-72
2023/10/15 06:31:04;;;;;;;;;;;8.00;80.30;;;;;;5070733;28;20049;-73
2023/10/15 06:33:40;;;;;;;;;;;8.10;80.30;;;;;;5069137;28;20065;-72
2023/10/15 06:36:14;;;;;;;;;;;8.00;80.50;;;;;;5069807;28;19935;-73
2023/10/15 06:38:42;;;;;;;;;;;8.10;80.50;;;;;;5069501;28;19928;-71
2023/10/15 06:41:15;;;;;;;;;;;8.20;80.50;;;;;;5070849;28;21913;-72
2023/10/15 06:43:48;;;;;;;;;;;8.10;80.70;;;;;;5067120;28;20376;-71
2023/10/15 06:46:23;;;;;;;;;;;8.20;80.70;;;;;;5064007;28;20360;-72
2023/10/15 06:49:03;;;;;;;;;;;8.10;80.90;;;;;;5070009;28;19929;-72
2023/10/15 06:51:39;;;;;;;;;;;8.10;81.10;;;;;;5066946;28;19993;-72
2023/10/15 06:54:14;;;;;;;;;;;8.10;81.30;;;;;;5070965;28;19925;-72
2023/10/15 06:56:47;;;;;;;;;;;8.20;81.30;;;;;;5068721;28;19982;-71
2023/10/15 06:59:20;;;;;;;;;;;8.20;81.30;;;;;;5069527;28;19935;-72
2023/10/15 07:01:53;;;;;;;;;;;8.30;81.20;;;;;;5066533;28;19974;-71
2023/10/15 07:04:27;;;;;;;;;;;8.20;81.20;;;;;;5070750;28;19924;-71
2023/10/15 07:07:00;;;;;;;;;;;8.30;81.40;;;;;;5069468;28;19928;-72
2023/10/15 07:09:37;;;;;;;;;;;8.40;81.30;;;;;;5069235;28;20394;-71
2023/10/15 07:12:10;;;;;;;;;;;8.30;81.30;;;;;;5067239;28;19928;-70
2023/10/15 07:14:39;;;;;;;;;;;8.30;81.40;;;;;;5067097;28;19932;-70
2023/10/15 07:17:12;;;;;;;;;;;8.30;81.60;;;;;;5063596;28;19926;-70
2023/10/15 07:19:45;;;;;;;;;;;8.40;81.60;;;;;;5070345;28;19929;-70
2023/10/15 07:22:18;;;;;;;;;;;8.40;81.60;;;;;;5069810;28;20018;-72
2023/10/15 07:24:54;;;;;;;;;;;8.60;81.40;;;;;;5072774;28;19929;-72
2023/10/15 07:27:27;;;;;;;;;;;8.60;81.40;;;;;;5072669;28;20464;-72
2023/10/15 07:30:01;;;;;;;;;;;8.70;81.40;;;;;;5074737;28;19928;-72
2023/10/15 07:32:35;;;;;;;;;;;8.70;81.50;;;;;;5071505;28;19970;-72
2023/10/15 07:35:11;;;;;;;;;;;8.70;81.50;;;;;;5074374;28;19947;-71
2023/10/15 07:37:45;;;;;;;;;;;8.70;81.50;;;;;;5072579;28;19967;-72
2023/10/15 07:40:22;;;;;;;;;;;8.90;81.40;;;;;;5073815;28;20007;-72
2023/10/15 07:42:58;;;;;;;;;;;8.90;81.60;;;;;;5072684;28;19928;-71
2023/10/15 07:45:32;;;;;;;;;;;9.00;81.50;;;;;;5069750;28;19924;-72
2023/10/15 07:48:07;;;;;;;;;;;9.10;81.70;;;;;;5070394;28;20364;-71
2023/10/15 07:50:43;;;;;;;;;;;9.10;81.50;;;;;;5071804;28;19982;-72
2023/10/15 07:53:16;;;;;;;;;;;9.30;81.70;;;;;;5081894;28;20287;-72
2023/10/15 07:55:52;;;;;;;;;;;9.40;81.30;;;;;;5073865;28;19955;-70
2023/10/15 08:01:16;;;;;;;;;;;9.60;81.10;;;;;;5071589;28;19924;-72
2023/10/15 08:03:49;;;;;;;;;;;9.70;81.20;;;;;;5072997;28;19925;-71
2023/10/15 08:06:23;;;;;;;;;;;9.70;81.00;;;;;;5071960;28;20414;-72
2023/10/15 08:08:56;;;;;;;;;;;9.70;81.00;;;;;;5068867;28;20011;-72
2023/10/15 08:11:31;;;;;;;;;;;9.70;81.00;;;;;;5071681;28;19932;-72
2023/10/15 08:14:05;;;;;;;;;;;9.70;81.10;;;;;;5061882;28;19939;-63
2023/10/15 08:16:33;;;;;;;;;;;9.60;81.00;;;;;;5072547;28;19929;-63
2023/10/15 08:19:07;;;;;;;;;;;9.70;81.00;;;;;;5068399;28;19924;-63
2023/10/15 08:21:40;;;;;;;;;;;9.80;80.90;;;;;;5072360;28;19932;-63
2023/10/15 08:24:15;;;;;;;;;;;9.90;80.90;;;;;;5071237;28;19924;-62
2023/10/15 08:26:50;;;;;;;;;;;9.90;80.40;;;;;;5071127;28;19925;-62
2023/10/15 08:29:23;;;;;;;;;;;10.00;80.40;;;;;;5071028;28;19931;-64
2023/10/15 08:31:57;;;;;;;;;;;10.10;80.00;;;;;;5067511;28;19947;-64
2023/10/15 08:34:30;;;;;;;;;;;10.00;79.50;;;;;;5068240;28;20296;-63
2023/10/15 08:37:04;;;;;;;;;;;10.10;79.60;;;;;;5070921;28;20343;-63
2023/10/15 08:39:38;;;;;;;;;;;10.10;79.60;;;;;;5071091;28;19928;-64
2023/10/15 08:42:14;;;;;;;;;;;10.10;79.30;;;;;;5055488;28;19977;-64
2023/10/15 08:44:49;;;;;;;;;;;10.30;79.00;;;;;;5069840;28;19925;-65
2023/10/15 08:47:25;;;;;;;;;;;10.30;78.70;;;;;;5071298;28;19928;-65
2023/10/15 08:49:59;;;;;;;;;;;10.30;78.70;;;;;;5071383;28;19929;-65
2023/10/15 08:52:32;;;;;;;;;;;10.30;78.70;;;;;;5070613;28;19925;-65
2023/10/15 08:55:06;;;;;;;;;;;10.30;78.50;;;;;;5066622;28;19928;-64
2023/10/15 08:57:42;;;;;;;;;;;10.30;78.50;;;;;;5070738;28;19968;-64
2023/10/15 09:00:25;;;;;;;;;;;10.30;78.30;;;;;;5071066;28;19924;-63
2023/10/15 09:03:00;;;;;;;;;;;10.30;78.40;;;;;;5068887;28;19928;-64
2023/10/15 09:05:36;;;;;;;;;;;10.40;78.20;;;;;;5068271;28;19956;-66
2023/10/15 09:08:13;;;;;;;;;;;10.50;78.00;;;;;;5085321;28;19929;-64
2023/10/15 09:10:52;;;;;;;;;;;10.50;77.80;;;;;;5070690;28;19928;-64
2023/10/15 09:13:27;;;;;;;;;;;10.60;77.60;;;;;;5071704;28;19963;-65
2023/10/15 09:16:01;;;;;;;;;;;10.60;77.30;;;;;;5070824;28;19928;-64
2023/10/15 09:18:36;;;;;;;;;;;10.60;77.30;;;;;;5069920;28;19928;-65
2023/10/15 09:21:08;;;;;;;;;;;10.60;77.30;;;;;;5069710;28;19928;-64
2023/10/15 09:23:42;;;;;;;;;;;10.60;77.60;;;;;;5067395;28;19924;-70
2023/10/15 09:26:16;;;;;;;;;;;10.70;77.60;;;;;;5069458;28;19956;-70
2023/10/15 09:28:51;;;;;;;;;;;10.60;77.00;;;;;;5069891;28;19931;-71
2023/10/15 09:31:25;;;;;;;;;;;10.60;77.00;;;;;;5068066;28;20017;-71
2023/10/15 09:34:01;;;;;;;;;;;10.70;76.60;;;;;;5068490;28;20456;-70
2023/10/15 09:36:27;;;;;;;;;;;10.70;76.00;;;;;;5069861;28;19932;-69
2023/10/15 09:39:12;;;;;;;;;;;10.80;75.90;;;;;;5068064;28;19947;-70
2023/10/15 09:41:46;;;;;;;;;;;10.90;75.70;;;;;;5070879;28;19929;-70
2023/10/15 09:44:21;;;;;;;;;;;11.00;75.30;;;;;;5071748;28;20019;-69
2023/10/15 09:46:55;;;;;;;;;;;11.10;74.40;;;;;;5067299;28;19946;-70
2023/10/15 09:49:31;;;;;;;;;;;11.20;73.90;;;;;;5071991;28;19964;-70
2023/10/15 09:52:06;;;;;;;;;;;11.20;73.50;;;;;;5071276;28;19928;-71
2023/10/15 09:54:43;;;;;;;;;;;11.30;73.20;;;;;;5071059;28;20379;-70
2023/10/15 09:57:21;;;;;;;;;;;11.40;72.80;;;;;;5071083;28;19995;-69
2023/10/15 09:59:56;;;;;;;;;;;11.50;72.40;;;;;;5071173;28;19932;-70
2023/10/15 10:02:36;;;;;;;;;;;11.60;72.00;;;;;;5067873;28;20011;-69
2023/10/15 10:05:31;;;;;;;;;;;11.80;71.90;;;;;;5070020;28;20276;-70
2023/10/15 10:08:22;;;;;;;;;;;11.90;71.00;;;;;;5065882;28;25826;-72
2023/10/15 10:11:14;;;;;;;;;;;11.90;70.40;;;;;;5070385;28;20279;-70
2023/10/15 10:14:02;;;;;;;;;;;11.80;69.70;;;;;;5064316;28;19925;-69
2023/10/15 10:16:37;;;;;;;;;;;11.70;69.70;;;;;;5070183;28;19968;-70
2023/10/15 10:19:11;;;;;;;;;;;11.60;70.00;;;;;;5069130;28;20287;-70
2023/10/15 10:21:46;;;;;;;;;;;11.70;70.40;;;;;;5069349;28;19951;-70
2023/10/15 10:24:20;;;;;;;;;;;11.70;70.30;;;;;;5070135;28;19929;-70
2023/10/15 10:26:54;;;;;;;;;;;11.60;70.50;;;;;;5069387;28;19931;-71
2023/10/15 10:29:27;;;;;;;;;;;11.50;70.50;;;;;;5069269;28;19928;-71
2023/10/15 10:32:05;;;;;;;;;;;11.50;70.60;;;;;;5065252;28;19983;-70
2023/10/15 10:34:40;;;;;;;;;;;11.50;70.90;;;;;;5063200;28;19974;-68
2023/10/15 10:37:20;;;;;;;;;;;11.60;70.70;;;;;;5069910;28;20303;-69
2023/10/15 10:39:53;;;;;;;;;;;11.60;70.50;;;;;;5060301;28;19956;-67
2023/10/15 10:42:28;;;;;;;;;;;11.60;70.90;;;;;;5075409;28;19933;-69
2023/10/15 10:45:01;;;;;;;;;;;11.80;70.80;;;;;;5070208;28;19925;-69
2023/10/15 10:47:36;;;;;;;;;;;11.80;70.20;;;;;;5067063;28;19925;-69
2023/10/15 10:50:10;;;;;;;;;;;11.80;70.20;;;;;;5070271;28;19974;-68
2023/10/15 10:52:44;;;;;;;;;;;11.70;69.50;;;;;;5067598;28;19946;-70
2023/10/15 10:55:31;;;;;;;;;;;11.70;68.60;;;;;;5068241;28;19956;-69
2023/10/15 10:58:08;;;;;;;;;;;11.50;69.20;;;;;;5071696;28;20299;-69
2023/10/15 11:00:42;;;;;;;;;;;11.50;69.10;;;;;;5084552;28;20280;-69
2023/10/15 11:03:20;;;;;;;;;;;11.50;68.80;;;;;;5070147;28;19977;-69
2023/10/15 11:05:54;;;;;;;;;;;11.70;68.30;;;;;;5071893;28;19967;-69
2023/10/15 11:08:28;;;;;;;;;;;11.70;67.40;;;;;;5055913;28;20429;-69
2023/10/15 11:11:00;;;;;;;;;;;11.60;67.40;;;;;;5073708;28;20374;-70
2023/10/15 11:13:34;;;;;;;;;;;11.70;67.40;;;;;;5071359;28;19932;-71
2023/10/15 11:16:07;;;;;;;;;;;11.70;67.10;;;;;;5067748;28;19924;-70
2023/10/15 11:18:45;;;;;;;;;;;11.90;67.20;;;;;;5073369;28;20379;-69
2023/10/15 11:21:18;;;;;;;;;;;11.90;67.10;;;;;;5079716;28;19951;-69
2023/10/15 11:23:53;;;;;;;;;;;12.00;67.40;;;;;;5071576;28;19937;-69
2023/10/15 11:26:31;;;;;;;;;;;11.90;67.60;;;;;;5070728;28;19929;-69
2023/10/15 11:29:04;;;;;;;;;;;12.00;67.80;;;;;;5073020;28;19939;-69
2023/10/15 11:31:38;;;;;;;;;;;11.90;67.80;;;;;;5070808;28;20367;-69
2023/10/15 11:34:12;;;;;;;;;;;12.00;68.00;;;;;;5072964;28;19974;-69
2023/10/15 11:36:48;;;;;;;;;;;11.80;67.90;;;;;;5068396;28;19928;-70
2023/10/15 11:39:25;;;;;;;;;;;11.70;68.00;;;;;;5072039;28;20043;-69
2023/10/15 11:41:58;;;;;;;;;;;11.60;67.20;;;;;;5071940;28;20397;-69
2023/10/15 11:44:31;;;;;;;;;;;11.60;67.60;;;;;;5071940;28;20007;-70
2023/10/15 11:47:08;;;;;;;;;;;11.50;67.80;;;;;;5070542;28;19932;-69
2023/10/15 11:49:43;;;;;;;;;;;11.40;68.10;;;;;;5064756;28;20431;-70
2023/10/15 11:52:18;;;;;;;;;;;11.50;68.30;;;;;;5070293;28;20007;-71
2023/10/15 11:54:57;;;;;;;;;;;11.50;68.40;;;;;;5075050;28;19956;-70
2023/10/15 11:57:39;;;;;;;;;;;11.50;68.60;;;;;;5069097;28;20276;-70
2023/10/15 12:00:22;;;;;;;;;;;11.60;68.90;;;;;;5062210;28;19971;-72
2023/10/15 12:02:59;;;;;;;;;;;11.70;69.10;;;;;;5069883;28;20027;-71
2023/10/15 12:05:35;;;;;;;;;;;11.70;69.10;;;;;;5071076;28;20346;-70
2023/10/15 12:08:12;;;;;;;;;;;11.80;68.40;;;;;;5063603;28;19929;-70
2023/10/15 12:10:46;;;;;;;;;;;11.80;66.90;;;;;;5064966;28;19925;-69
2023/10/15 12:13:19;;;;;;;;;;;11.90;67.20;;;;;;5066903;28;20013;-72
2023/10/15 12:15:51;;;;;;;;;;;11.80;66.20;;;;;;5063758;28;19986;-72
2023/10/15 12:18:30;;;;;;;;;;;11.90;66.80;;;;;;5061651;28;19932;-70
2023/10/15 12:21:06;;;;;;;;;;;11.90;66.20;;;;;;5060962;28;21352;-71
2023/10/15 12:23:32;;;;;;;;;;;11.90;66.00;;;;;;5064558;28;19958;-70
2023/10/15 12:26:07;;;;;;;;;;;11.80;66.20;;;;;;5064678;28;19924;-71
2023/10/15 12:28:46;;;;;;;;;;;11.80;66.00;;;;;;5068259;28;19928;-70
2023/10/15 12:31:30;;;;;;;;;;;;;;;;;;;;;
2023/10/15 12:34:08;;;;;;;;;;;11.90;66.60;;;;;;5066937;28;20006;-70
2023/10/15 12:36:42;;;;;;;;;;;11.90;66.80;;;;;;5064849;28;19933;-70
2023/10/15 12:39:16;;;;;;;;;;;11.80;66.30;;;;;;5066051;28;19924;-70
2023/10/15 12:41:52;;;;;;;;;;;11.80;66.60;;;;;;5067318;28;19970;-70
2023/10/15 12:44:27;;;;;;;;;;;11.80;66.80;;;;;;5071159;28;19928;-70
2023/10/15 12:47:01;;;;;;;;;;;11.90;66.60;;;;;;5071843;28;20038;-71
2023/10/15 12:49:33;;;;;;;;;;;11.80;66.90;;;;;;5072158;28;20441;-71
2023/10/15 12:52:08;;;;;;;;;;;11.80;66.70;;;;;;5060469;28;19947;-71
2023/10/15 12:54:35;;;;;;;;;;;11.80;66.90;;;;;;5064322;28;19932;-71
2023/10/15 12:57:09;;;;;;;;;;;11.80;67.30;;;;;;5061867;28;20038;-71
2023/10/15 12:59:36;;;;;;;;;;;11.80;67.70;;;;;;5065644;28;19932;-71
2023/10/15 13:02:10;;;;;;;;;;;11.70;67.40;;;;;;5067947;28;19967;-70
2023/10/15 13:04:43;;;;;;;;;;;11.70;68.00;;;;;;5070587;28;19925;-71
2023/10/15 13:07:19;;;;;;;;;;;11.70;67.40;;;;;;5067188;28;20291;-71
2023/10/15 13:09:52;;;;;;;;;;;11.70;67.20;;;;;;5058127;28;19951;-71
2023/10/15 13:12:26;;;;;;;;;;;11.80;67.10;;;;;;5067586;28;20009;-72
2023/10/15 13:14:58;;;;;;;;;;;11.80;66.90;;;;;;5082885;28;19924;-70
2023/10/15 13:17:25;;;;;;;;;;;11.90;67.00;;;;;;5062721;28;19929;-71
2023/10/15 13:19:59;;;;;;;;;;;11.90;67.00;;;;;;5066364;28;20410;-71
2023/10/15 13:22:27;;;;;;;;;;;11.90;66.40;;;;;;5063395;28;19928;-71
2023/10/15 13:25:00;;;;;;;;;;;11.90;66.20;;;;;;5061143;28;19929;-71
2023/10/15 13:27:33;;;;;;;;;;;12.00;66.20;;;;;;5061345;28;20389;-70
2023/10/15 13:30:07;;;;;;;;;;;12.00;66.00;;;;;;5062034;28;19932;-72
2023/10/15 13:32:41;;;;;;;;;;;12.10;65.80;;;;;;5059108;28;19925;-71
2023/10/15 13:35:15;;;;;;;;;;;12.20;65.90;;;;;;5047110;28;19932;-71
2023/10/15 13:37:43;;;;;;;;;;;12.10;65.80;;;;;;5046133;28;20007;-70
2023/10/15 13:40:18;;;;;;;;;;;12.20;66.00;;;;;;5048678;28;19937;-70
2023/10/15 13:42:52;;;;;;;;;;;12.20;65.90;;;;;;5050344;28;20119;-70
2023/10/15 13:45:26;;;;;;;;;;;12.20;65.30;;;;;;5050267;28;19928;-70
2023/10/15 13:47:59;;;;;;;;;;;12.10;65.10;;;;;;5050036;28;19933;-70
2023/10/15 13:50:26;;;;;;;;;;;12.20;65.50;;;;;;5049560;28;19935;-70
2023/10/15 13:53:00;;;;;;;;;;;12.20;65.10;;;;;;5048260;28;20358;-72
2023/10/15 13:55:34;;;;;;;;;;;12.30;65.00;;;;;;5051283;28;20439;-71
2023/10/15 13:58:07;;;;;;;;;;;12.40;64.90;;;;;;5049025;28;20372;-71
2023/10/15 14:00:40;;;;;;;;;;;12.60;64.60;;;;;;5050369;28;19967;-70
2023/10/15 14:03:13;;;;;;;;;;;12.60;64.60;;;;;;5050130;28;20292;-71
2023/10/15 14:05:46;;;;;;;;;;;12.60;64.80;;;;;;5050476;28;19935;-66
2023/10/15 14:08:21;;;;;;;;;;;12.60;65.30;;;;;;5049026;28;19935;-66
2023/10/15 14:10:55;;;;;;;;;;;12.50;65.60;;;;;;5050042;28;20451;-65
2023/10/15 14:13:28;;;;;;;;;;;12.40;66.00;;;;;;5049609;28;19925;-65
2023/10/15 14:16:02;;;;;;;;;;;12.40;66.10;;;;;;5049510;28;20395;-64
2023/10/15 14:18:36;;;;;;;;;;;12.20;66.20;;;;;;5050691;28;19978;-65
2023/10/15 14:21:18;;;;;;;;;;;12.20;66.60;;;;;;5049803;28;20376;-65
2023/10/15 14:23:52;;;;;;;;;;;12.20;66.80;;;;;;5040011;28;19978;-66
2023/10/15 14:26:26;;;;;;;;;;;12.20;67.20;;;;;;5043361;28;19929;-66
2023/10/15 14:28:59;;;;;;;;;;;12.20;66.90;;;;;;5048008;28;19936;-65
2023/10/15 14:31:32;;;;;;;;;;;12.30;66.80;;;;;;5051716;28;20372;-65
2023/10/15 14:34:07;;;;;;;;;;;12.50;66.60;;;;;;5053864;28;19929;-66
2023/10/15 14:36:41;;;;;;;;;;;12.40;65.50;;;;;;5054123;28;19929;-65
2023/10/15 14:39:22;;;;;;;;;;;12.50;64.80;;;;;;5053361;28;19932;-66
2023/10/15 14:41:56;;;;;;;;;;;12.50;65.20;;;;;;5053753;28;19935;-66
2023/10/15 14:44:30;;;;;;;;;;;12.40;64.80;;;;;;5053450;28;19929;-66
2023/10/15 14:47:04;;;;;;;;;;;12.50;64.20;;;;;;5053590;28;19925;-66
2023/10/15 14:49:37;;;;;;;;;;;12.40;64.70;;;;;;5054158;28;19971;-65
2023/10/15 14:52:10;;;;;;;;;;;12.50;63.90;;;;;;5052514;28;20024;-66
2023/10/15 14:54:44;;;;;;;;;;;12.40;63.90;;;;;;5054303;28;20402;-66
2023/10/15 14:57:18;;;;;;;;;;;12.30;63.70;;;;;;5053636;28;19953;-65
2023/10/15 14:59:52;;;;;;;;;;;12.30;64.10;;;;;;5053518;28;19975;-64
2023/10/15 15:02:25;;;;;;;;;;;12.40;64.70;;;;;;5053422;28;20019;-66
2023/10/15 15:04:58;;;;;;;;;;;12.40;64.90;;;;;;5053810;28;19931;-67
2023/10/15 15:07:31;;;;;;;;;;;12.50;64.70;;;;;;5054023;28;19955;-65
2023/10/15 15:10:06;;;;;;;;;;;12.60;64.70;;;;;;5052602;28;19929;-65
2023/10/15 15:12:40;;;;;;;;;;;12.60;64.80;;;;;;5053596;28;19979;-65